createdAt,value
2022-07-25T00:02:08.990Z,3.38
2022-07-25T00:04:36.009Z,3.90
2022-07-25T00:07:03.081Z,3.45
2022-07-25T00:09:29.913Z,3.30
2022-07-25T00:11:56.770Z,3.42
2022-07-25T00:14:23.641Z,3.53
2022-07-25T00:16:50.783Z,3.50
2022-07-25T00:19:18.171Z,3.88
2022-07-25T00:21:45.272Z,4.38
2022-07-25T00:24:12.141Z,4.43
2022-07-25T00:26:40.569Z,4.45
2022-07-25T00:29:07.943Z,4.18
2022-07-25T00:31:35.023Z,4.60
2022-07-25T00:34:03.002Z,4.28
2022-07-25T00:36:30.118Z,4.22
2022-07-25T00:38:56.935Z,4.43
2022-07-25T00:41:23.911Z,4.82
2022-07-25T00:43:50.770Z,4.90
2022-07-25T00:46:18.803Z,4.78
2022-07-25T00:48:47.624Z,4.75
2022-07-25T00:51:16.640Z,4.60
2022-07-25T00:53:45.174Z,5.45
2022-07-25T00:56:12.188Z,4.53
2022-07-25T00:58:39.077Z,4.90
2022-07-25T01:01:06.211Z,4.75
2022-07-25T01:03:33.125Z,5.13
2022-07-25T01:05:59.985Z,4.47
2022-07-25T01:08:27.594Z,4.47
2022-07-25T01:10:54.462Z,4.28
2022-07-25T01:13:21.358Z,4.25
2022-07-25T01:15:48.280Z,4.40
2022-07-25T01:18:15.150Z,5.13
2022-07-25T01:20:42.085Z,4.93
2022-07-25T01:23:08.991Z,4.78
2022-07-25T01:25:35.808Z,5.22
2022-07-25T01:28:03.889Z,4.78
2022-07-25T01:30:30.683Z,4.68
2022-07-25T01:32:57.498Z,4.65
2022-07-25T01:35:24.350Z,5.20
2022-07-25T01:37:51.228Z,6.55
2022-07-25T01:40:18.553Z,5.63
2022-07-25T01:42:45.404Z,6.07
2022-07-25T01:45:12.972Z,5.03
2022-07-25T01:47:40.376Z,6.53
2022-07-25T01:50:08.158Z,6.40
2022-07-25T01:52:37.289Z,7.50
2022-07-25T01:55:04.566Z,6.47
2022-07-25T01:57:33.212Z,6.93
2022-07-25T02:00:00.263Z,6.72
2022-07-25T02:02:27.283Z,7.75
2022-07-25T02:04:55.245Z,6.63
2022-07-25T02:07:22.116Z,6.78
2022-07-25T02:09:53.366Z,6.68
2022-07-25T02:12:23.219Z,7.32
2022-07-25T02:14:50.040Z,6.90
2022-07-25T02:17:16.980Z,6.53
2022-07-25T02:19:44.558Z,6.50
2022-07-25T02:22:11.381Z,5.93
2022-07-25T02:24:38.320Z,6.32
2022-07-25T02:27:05.979Z,6.72
2022-07-25T02:29:33.329Z,5.53
2022-07-25T02:32:00.358Z,6.63
2022-07-25T02:34:27.209Z,5.97
2022-07-25T02:36:54.127Z,6.20
2022-07-25T02:39:21.437Z,6.90
2022-07-25T02:41:48.242Z,6.07
2022-07-25T02:44:15.087Z,5.82
2022-07-25T02:46:41.908Z,6.15
2022-07-25T02:49:08.766Z,5.72
2022-07-25T02:51:35.659Z,5.97
2022-07-25T02:54:02.465Z,6.20
2022-07-25T02:56:30.131Z,5.55
2022-07-25T02:58:59.419Z,6.63
2022-07-25T03:01:26.359Z,6.22
2022-07-25T03:03:53.299Z,5.60
2022-07-25T03:06:20.518Z,5.65
2022-07-25T03:08:47.347Z,5.32
2022-07-25T03:11:14.531Z,4.78
2022-07-25T03:13:41.343Z,5.90
2022-07-25T03:16:08.472Z,4.68
2022-07-25T03:18:35.475Z,5.88
2022-07-25T03:21:02.593Z,5.95
2022-07-25T03:23:30.960Z,6.13
2022-07-25T03:25:57.899Z,6.78
2022-07-25T03:28:25.219Z,6.55
2022-07-25T03:30:52.870Z,6.28
2022-07-25T03:33:19.769Z,6.30
2022-07-25T03:35:47.023Z,5.70
2022-07-25T03:38:13.925Z,5.95
2022-07-25T03:40:40.946Z,6.53
2022-07-25T03:43:07.814Z,6.22
2022-07-25T03:45:35.124Z,6.63
2022-07-25T03:48:02.195Z,6.78
2022-07-25T03:50:29.049Z,6.93
2022-07-25T03:52:55.884Z,6.22
2022-07-25T03:55:22.742Z,7.07
2022-07-25T03:57:49.608Z,6.57
2022-07-25T04:00:17.634Z,7.90
2022-07-25T04:02:44.831Z,7.65
2022-07-25T04:05:11.831Z,6.75
2022-07-25T04:07:38.824Z,8.43
2022-07-25T04:10:07.031Z,7.70
2022-07-25T04:12:34.266Z,7.78
2022-07-25T04:15:01.472Z,7.82
2022-07-25T04:17:28.302Z,8.25
2022-07-25T04:19:55.143Z,7.10
2022-07-25T04:22:22.513Z,8.20
2022-07-25T04:24:49.512Z,7.65
2022-07-25T04:27:16.781Z,8.27
2022-07-25T04:29:43.769Z,7.00
2022-07-25T04:32:10.700Z,7.68
2022-07-25T04:34:37.585Z,7.82
2022-07-25T04:37:04.603Z,6.53
2022-07-25T04:39:31.427Z,8.15
2022-07-25T04:41:58.447Z,6.70
2022-07-25T04:44:25.266Z,6.68
2022-07-25T04:46:52.070Z,8.07
2022-07-25T04:49:19.117Z,7.95
2022-07-25T04:51:45.946Z,7.90
2022-07-25T04:54:12.829Z,7.15
2022-07-25T04:56:39.763Z,7.70
2022-07-25T04:59:07.234Z,9.98
2022-07-25T05:01:35.401Z,6.70
2022-07-25T05:04:02.500Z,6.25
2022-07-25T05:06:29.540Z,7.28
2022-07-25T05:08:56.400Z,7.85
2022-07-25T05:11:23.208Z,7.13
2022-07-25T05:13:50.169Z,7.00
2022-07-25T05:16:17.047Z,7.10
2022-07-25T05:18:43.959Z,6.65
2022-07-25T05:21:12.394Z,7.40
2022-07-25T05:23:39.746Z,6.90
2022-07-25T05:26:06.733Z,7.78
2022-07-25T05:28:33.963Z,7.55
2022-07-25T05:31:00.903Z,6.57
2022-07-25T05:33:27.859Z,7.78
2022-07-25T05:35:54.778Z,7.30
2022-07-25T05:38:22.030Z,6.80
2022-07-25T05:40:52.066Z,8.95
2022-07-25T05:43:19.244Z,7.20
2022-07-25T05:45:47.506Z,7.88
2022-07-25T05:48:15.223Z,7.30
2022-07-25T05:50:42.205Z,6.25
2022-07-25T05:53:08.991Z,8.63
2022-07-25T05:55:35.936Z,7.25
2022-07-25T05:58:09.361Z,6.95
2022-07-25T06:00:36.819Z,7.80
2022-07-25T06:03:04.337Z,7.03
2022-07-25T06:05:31.720Z,6.93
2022-07-25T06:07:58.517Z,6.90
2022-07-25T06:10:25.465Z,6.65
2022-07-25T06:12:52.835Z,7.43
2022-07-25T06:15:22.965Z,7.78
2022-07-25T06:17:54.663Z,7.65
2022-07-25T06:20:21.742Z,5.93
2022-07-25T06:22:48.777Z,6.50
2022-07-25T06:25:15.847Z,6.10
2022-07-25T06:27:42.844Z,6.60
2022-07-25T06:30:19.250Z,6.15
2022-07-25T06:32:50.493Z,6.80
2022-07-25T06:35:18.098Z,6.38
2022-07-25T06:37:45.185Z,6.63
2022-07-25T06:40:12.254Z,6.45
2022-07-25T06:42:46.840Z,6.28
2022-07-25T06:45:15.114Z,5.35
2022-07-25T06:47:43.221Z,6.22
2022-07-25T06:50:12.378Z,6.53
2022-07-25T06:52:40.206Z,5.38
2022-07-25T06:55:09.513Z,4.88
2022-07-25T06:57:37.000Z,5.05
2022-07-25T07:00:09.913Z,5.60
2022-07-25T07:02:58.472Z,4.95
2022-07-25T07:05:29.019Z,6.03
2022-07-25T07:07:56.421Z,5.18
2022-07-25T07:10:24.161Z,5.32
2022-07-25T07:12:51.504Z,5.10
2022-07-25T07:15:18.384Z,4.57
2022-07-25T07:17:45.329Z,4.22
2022-07-25T07:20:12.340Z,5.03
2022-07-25T07:22:47.981Z,4.57
2022-07-25T07:25:18.783Z,4.10
2022-07-25T07:27:47.346Z,5.07
2022-07-25T07:30:23.702Z,4.53
2022-07-25T07:32:51.747Z,5.25
2022-07-25T07:35:19.291Z,6.45
2022-07-25T07:37:46.972Z,4.75
2022-07-25T07:40:17.457Z,5.95
2022-07-25T07:42:47.788Z,5.07
2022-07-25T07:45:22.205Z,5.20
2022-07-25T07:47:51.504Z,4.82
2022-07-25T07:50:21.340Z,5.40
2022-07-25T07:52:49.185Z,5.35
2022-07-25T07:55:35.179Z,6.63
2022-07-25T07:58:02.506Z,4.35
2022-07-25T08:00:36.103Z,4.45
2022-07-25T08:03:03.973Z,6.07
2022-07-25T08:05:38.154Z,5.35
2022-07-25T08:08:07.419Z,5.40
2022-07-25T08:10:36.487Z,5.20
2022-07-25T08:13:25.141Z,6.80
2022-07-25T08:15:54.717Z,5.60
2022-07-25T08:18:22.025Z,5.18
2022-07-25T08:20:49.893Z,4.70
2022-07-25T08:23:17.733Z,5.25
2022-07-25T08:25:45.907Z,6.30
2022-07-25T08:28:14.435Z,4.45
2022-07-25T08:30:42.333Z,4.60
2022-07-25T08:33:13.175Z,5.22
2022-07-25T08:35:41.789Z,4.20
2022-07-25T08:38:11.437Z,4.95
2022-07-25T08:40:38.797Z,5.13
2022-07-25T08:43:05.775Z,4.38
2022-07-25T08:45:33.517Z,6.28
2022-07-25T08:48:00.696Z,5.38
2022-07-25T08:50:29.454Z,6.35
2022-07-25T08:53:23.035Z,5.10
2022-07-25T08:55:45.667Z,5.15
2022-07-25T08:58:15.464Z,5.00
2022-07-25T09:00:43.009Z,4.65
2022-07-25T09:03:10.608Z,5.57
2022-07-25T09:05:38.252Z,4.22
2022-07-25T09:08:17.566Z,3.92
2022-07-25T09:10:49.767Z,4.32
2022-07-25T09:13:19.193Z,3.58
2022-07-25T09:15:51.800Z,3.80
2022-07-25T09:18:23.783Z,4.03
2022-07-25T09:20:53.354Z,3.92
2022-07-25T09:23:30.673Z,3.28
2022-07-25T09:26:08.473Z,2.88
2022-07-25T09:28:49.611Z,3.17
2022-07-25T09:31:19.088Z,3.17
2022-07-25T09:33:54.358Z,2.55
2022-07-25T09:36:21.493Z,2.72
2022-07-25T09:38:53.259Z,2.63
2022-07-25T09:41:20.414Z,2.40
2022-07-25T09:43:47.705Z,2.80
2022-07-25T09:46:14.657Z,3.78
2022-07-25T09:48:45.442Z,2.83
2022-07-25T09:51:12.430Z,2.65
2022-07-25T09:53:40.959Z,2.55
2022-07-25T09:56:08.374Z,2.78
2022-07-25T09:58:35.262Z,2.75
2022-07-25T10:01:07.767Z,2.33
2022-07-25T10:04:19.478Z,3.13
2022-07-25T10:07:04.179Z,3.22
2022-07-25T10:09:31.726Z,2.53
2022-07-25T10:12:10.716Z,2.85
2022-07-25T10:14:38.730Z,3.75
2022-07-25T10:17:06.449Z,3.85
2022-07-25T10:19:51.803Z,3.05
2022-07-25T10:22:34.318Z,3.08
2022-07-25T10:25:18.640Z,2.90
2022-07-25T10:27:52.120Z,3.35
2022-07-25T10:30:24.514Z,2.90
2022-07-25T10:32:57.717Z,2.67
2022-07-25T10:35:26.532Z,2.28
2022-07-25T10:37:55.163Z,2.03
2022-07-25T10:40:32.979Z,1.92
2022-07-25T10:43:05.850Z,1.63
2022-07-25T10:46:02.052Z,2.08
2022-07-25T10:48:31.492Z,1.77
2022-07-25T10:51:01.245Z,1.35
2022-07-25T10:53:48.766Z,1.98
2022-07-25T10:56:21.847Z,1.63
2022-07-25T10:59:00.945Z,1.23
2022-07-25T11:01:33.894Z,1.38
2022-07-25T11:04:14.502Z,1.20
2022-07-25T11:06:43.011Z,1.23
2022-07-25T11:09:28.306Z,1.10
2022-07-25T11:11:59.646Z,1.20
2022-07-25T11:14:33.400Z,1.65
2022-07-25T11:17:15.359Z,1.40
2022-07-25T11:19:44.234Z,1.50
2022-07-25T11:22:11.718Z,1.20
2022-07-25T11:24:44.135Z,1.10
2022-07-25T11:27:13.680Z,1.60
2022-07-25T11:29:41.447Z,1.70
2022-07-25T11:32:10.816Z,1.48
2022-07-25T11:34:41.495Z,1.50
2022-07-25T11:37:10.104Z,1.40
2022-07-25T11:39:40.561Z,1.27
2022-07-25T11:42:11.485Z,1.02
2022-07-25T11:44:38.634Z,0.90
2022-07-25T11:47:10.651Z,0.90
2022-07-25T11:49:48.097Z,0.60
2022-07-25T11:52:47.558Z,1.00
2022-07-25T11:55:17.718Z,0.70
2022-07-25T11:57:47.054Z,0.88
2022-07-25T12:00:22.100Z,1.15
2022-07-25T12:02:49.928Z,0.75
2022-07-25T12:05:19.421Z,0.88
2022-07-25T12:07:46.193Z,1.00
2022-07-25T12:10:34.708Z,1.17
2022-07-25T12:13:04.145Z,1.13
2022-07-25T12:15:33.617Z,0.80
2022-07-25T12:18:01.929Z,1.00
2022-07-25T12:20:28.768Z,1.08
2022-07-25T12:22:58.169Z,1.30
2022-07-25T12:25:30.418Z,1.58
2022-07-25T12:27:59.030Z,1.15
2022-07-25T12:30:27.838Z,1.60
2022-07-25T12:32:55.125Z,1.00
2022-07-25T12:35:22.293Z,2.50
2022-07-25T12:37:49.761Z,1.40
2022-07-25T12:40:18.277Z,1.05
2022-07-25T12:42:46.177Z,1.33
2022-07-25T12:45:15.584Z,1.38
2022-07-25T12:47:43.903Z,1.42
2022-07-25T12:50:11.246Z,1.65
2022-07-25T12:52:40.131Z,1.27
2022-07-25T12:55:08.388Z,0.82
2022-07-25T12:57:38.667Z,2.05
2022-07-25T13:00:09.374Z,0.93
2022-07-25T13:02:36.999Z,1.08
2022-07-25T13:05:04.628Z,1.25
2022-07-25T13:07:32.740Z,2.00
2022-07-25T13:10:00.020Z,1.88
2022-07-25T13:12:26.975Z,1.10
2022-07-25T13:14:53.817Z,1.38
2022-07-25T13:17:25.082Z,1.60
2022-07-25T13:19:54.927Z,0.90
2022-07-25T13:22:22.010Z,1.23
2022-07-25T13:24:48.934Z,1.02
2022-07-25T13:27:18.485Z,1.25
2022-07-25T13:29:45.454Z,1.20
2022-07-25T13:32:12.753Z,1.40
2022-07-25T13:34:39.978Z,1.02
2022-07-25T13:37:07.057Z,1.48
2022-07-25T13:39:35.664Z,1.25
2022-07-25T13:42:03.041Z,1.10
2022-07-25T13:44:29.847Z,1.15
2022-07-25T13:46:58.728Z,1.00
2022-07-25T13:49:25.994Z,1.20
2022-07-25T13:51:53.127Z,1.17
2022-07-25T13:54:20.039Z,1.00
2022-07-25T13:56:47.533Z,1.23
2022-07-25T13:59:20.457Z,1.48
2022-07-25T14:01:48.415Z,1.27
2022-07-25T14:04:15.840Z,1.73
2022-07-25T14:06:43.164Z,1.00
2022-07-25T14:09:10.473Z,1.30
2022-07-25T14:11:37.610Z,1.55
2022-07-25T14:14:04.424Z,1.48
2022-07-25T14:16:31.531Z,1.27
2022-07-25T14:18:58.437Z,1.17
2022-07-25T14:21:25.587Z,1.92
2022-07-25T14:23:52.732Z,1.65
2022-07-25T14:26:19.717Z,1.40
2022-07-25T14:28:47.511Z,2.13
2022-07-25T14:31:14.406Z,1.60
2022-07-25T14:33:41.430Z,1.83
2022-07-25T14:36:09.843Z,1.65
2022-07-25T14:38:37.227Z,1.90
2022-07-25T14:41:09.150Z,2.05
2022-07-25T14:43:40.137Z,2.03
2022-07-25T14:46:08.346Z,1.55
2022-07-25T14:48:37.437Z,1.98
2022-07-25T14:51:05.573Z,1.90
2022-07-25T14:53:33.101Z,2.30
2022-07-25T14:56:00.978Z,1.60
2022-07-25T14:58:28.140Z,2.30
2022-07-25T15:00:55.240Z,2.20
2022-07-25T15:03:22.333Z,2.15
2022-07-25T15:05:49.228Z,1.65
2022-07-25T15:08:16.133Z,1.55
2022-07-25T15:10:43.026Z,1.90
2022-07-25T15:15:57.714Z,1.48
2022-07-25T15:18:24.591Z,2.17
2022-07-25T15:20:51.979Z,1.95
2022-07-25T15:23:21.100Z,2.45
2022-07-25T15:26:04.601Z,1.42
2022-07-25T15:28:37.165Z,1.80
2022-07-25T15:31:05.099Z,1.25
2022-07-25T15:33:32.865Z,1.40
2022-07-25T15:36:00.277Z,1.67
2022-07-25T15:38:28.844Z,2.03
2022-07-25T15:40:55.824Z,1.50
2022-07-25T15:43:22.827Z,1.63
2022-07-25T15:45:50.021Z,1.40
2022-07-25T15:48:19.278Z,1.30
2022-07-25T15:50:48.532Z,1.80
2022-07-25T15:53:15.761Z,1.45
2022-07-25T15:55:43.073Z,1.40
2022-07-25T15:58:11.332Z,1.58
2022-07-25T16:00:39.787Z,2.20
2022-07-25T16:03:07.227Z,2.80
2022-07-25T16:05:34.205Z,2.60
2022-07-25T16:08:02.419Z,2.20
2022-07-25T16:10:31.756Z,3.75
2022-07-25T16:12:59.207Z,2.20
2022-07-25T16:15:26.446Z,1.83
2022-07-25T16:18:00.135Z,1.38
2022-07-25T16:20:31.347Z,1.80
2022-07-25T16:22:59.246Z,1.80
2022-07-25T16:25:28.034Z,1.58
2022-07-25T16:27:55.790Z,1.95
2022-07-25T16:30:23.224Z,1.60
2022-07-25T16:32:50.124Z,1.67
2022-07-25T16:35:17.145Z,1.52
2022-07-25T16:37:44.201Z,1.13
2022-07-25T16:40:11.393Z,1.50
2022-07-25T16:42:38.596Z,2.10
2022-07-25T16:45:06.280Z,2.58
2022-07-25T16:47:33.351Z,2.13
2022-07-25T16:50:00.344Z,1.27
2022-07-25T16:52:27.193Z,2.00
2022-07-25T16:54:54.106Z,1.73
2022-07-25T16:57:23.795Z,1.35
2022-07-25T16:59:53.408Z,1.25
2022-07-25T17:02:24.804Z,1.05
2022-07-25T17:04:53.299Z,1.13
2022-07-25T17:07:20.291Z,1.13
2022-07-25T17:09:47.147Z,1.05
2022-07-25T17:12:14.038Z,2.50
2022-07-25T17:14:40.842Z,1.00
2022-07-25T17:17:08.054Z,1.27
2022-07-25T17:19:39.669Z,1.58
2022-07-25T17:22:07.702Z,1.17
2022-07-25T17:24:34.992Z,1.13
2022-07-25T17:27:02.304Z,1.17
2022-07-25T17:29:29.365Z,0.88
2022-07-25T17:31:56.356Z,1.02
2022-07-25T17:34:24.379Z,1.27
2022-07-25T17:36:51.232Z,1.40
2022-07-25T17:39:18.208Z,1.50
2022-07-25T17:41:45.041Z,1.80
2022-07-25T17:44:12.541Z,1.58
2022-07-25T17:46:39.641Z,1.08
2022-07-25T17:49:06.730Z,0.77
2022-07-25T17:51:33.757Z,1.08
2022-07-25T17:54:00.609Z,0.82
2022-07-25T17:56:27.714Z,1.10
2022-07-25T17:58:54.740Z,1.27
2022-07-25T18:01:21.578Z,0.70
2022-07-25T18:03:50.253Z,0.93
2022-07-25T18:06:17.445Z,0.90
2022-07-25T18:08:44.303Z,0.93
2022-07-25T18:11:11.429Z,0.98
2022-07-25T18:13:38.479Z,1.38
2022-07-25T18:16:05.966Z,1.23
2022-07-25T18:18:33.064Z,1.05
2022-07-25T18:21:00.397Z,1.30
2022-07-25T18:23:28.770Z,0.80
2022-07-25T18:25:55.681Z,1.05
2022-07-25T18:28:22.679Z,1.25
2022-07-25T18:30:52.115Z,0.90
2022-07-25T18:33:20.249Z,1.25
2022-07-25T18:35:47.177Z,1.52
2022-07-25T18:38:13.994Z,1.60
2022-07-25T18:40:40.878Z,1.15
2022-07-25T18:43:08.942Z,1.17
2022-07-25T18:45:37.541Z,1.00
2022-07-25T18:48:08.060Z,0.98
2022-07-25T18:50:34.996Z,1.20
2022-07-25T18:53:01.916Z,0.95
2022-07-25T18:55:28.788Z,1.30
2022-07-25T18:57:55.666Z,1.02
2022-07-25T19:00:22.633Z,1.00
2022-07-25T19:02:50.567Z,0.82
2022-07-25T19:05:17.518Z,1.00
2022-07-25T19:07:44.545Z,1.58
2022-07-25T19:10:11.867Z,2.28
2022-07-25T19:12:39.010Z,2.40
2022-07-25T19:15:06.800Z,1.30
2022-07-25T19:17:34.690Z,0.90
2022-07-25T19:20:01.860Z,1.10
2022-07-25T19:22:28.659Z,1.00
2022-07-25T19:24:55.576Z,1.42
2022-07-25T19:27:24.933Z,1.23
2022-07-25T19:29:51.804Z,1.50
2022-07-25T19:32:18.681Z,0.88
2022-07-25T19:34:45.734Z,1.35
2022-07-25T19:37:12.611Z,1.20
2022-07-25T19:39:39.491Z,1.67
2022-07-25T19:42:08.621Z,1.08
2022-07-25T19:44:36.509Z,1.20
2022-07-25T19:47:04.604Z,2.13
2022-07-25T19:49:33.048Z,0.90
2022-07-25T19:52:01.417Z,1.30
2022-07-25T19:54:28.303Z,1.10
2022-07-25T19:56:55.300Z,1.15
2022-07-25T19:59:22.153Z,0.88
2022-07-25T20:01:50.212Z,1.30
2022-07-25T20:04:17.431Z,1.00
2022-07-25T20:06:44.639Z,1.15
2022-07-25T20:09:11.548Z,1.05
2022-07-25T20:11:39.045Z,1.48
2022-07-25T20:14:06.871Z,1.10
2022-07-25T20:16:36.129Z,1.67
2022-07-25T20:19:09.101Z,1.05
2022-07-25T20:21:40.361Z,1.20
2022-07-25T20:24:07.538Z,1.20
2022-07-25T20:26:34.713Z,1.48
2022-07-25T20:29:01.967Z,1.88
2022-07-25T20:31:28.943Z,1.13
2022-07-25T20:33:55.889Z,1.30
2022-07-25T20:36:22.791Z,2.22
2022-07-25T20:38:49.908Z,1.30
2022-07-25T20:41:16.838Z,1.10
2022-07-25T20:43:45.095Z,1.63
2022-07-25T20:46:12.093Z,1.40
2022-07-25T20:48:39.235Z,1.92
2022-07-25T20:51:06.279Z,1.20
2022-07-25T20:53:34.319Z,1.77
2022-07-25T20:56:02.847Z,1.30
2022-07-25T20:58:29.693Z,1.88
2022-07-25T21:00:56.606Z,2.55
2022-07-25T21:03:23.684Z,1.15
2022-07-25T21:05:50.599Z,1.60
2022-07-25T21:08:17.777Z,1.58
2022-07-25T21:10:44.692Z,1.33
2022-07-25T21:13:11.575Z,1.25
2022-07-25T21:15:38.821Z,1.45
2022-07-25T21:18:05.775Z,1.60
2022-07-25T21:20:32.652Z,1.75
2022-07-25T21:22:59.586Z,1.90
2022-07-25T21:25:26.715Z,2.03
2022-07-25T21:27:53.632Z,1.98
2022-07-25T21:30:20.733Z,2.10
2022-07-25T21:32:47.639Z,1.83
2022-07-25T21:35:14.552Z,1.40
2022-07-25T21:37:41.440Z,1.77
2022-07-25T21:40:09.075Z,3.05
2022-07-25T21:42:36.803Z,2.60
2022-07-25T21:45:04.244Z,1.60
2022-07-25T21:47:31.332Z,1.40
2022-07-25T21:50:19.251Z,1.83
2022-07-25T21:52:52.687Z,1.90
2022-07-25T21:55:20.294Z,2.40
2022-07-25T21:57:48.153Z,1.48
2022-07-25T22:00:15.391Z,1.90
2022-07-25T22:02:46.417Z,1.98
2022-07-25T22:05:14.533Z,1.60
2022-07-25T22:07:42.613Z,1.83
2022-07-25T22:10:11.696Z,1.75
2022-07-25T22:12:39.855Z,2.53
2022-07-25T22:15:12.072Z,2.35
2022-07-25T22:17:48.346Z,1.77
2022-07-25T22:20:17.813Z,2.10
2022-07-25T22:22:45.545Z,2.00
2022-07-25T22:25:12.427Z,1.98
2022-07-25T22:27:39.309Z,2.03
2022-07-25T22:30:06.885Z,2.08
2022-07-25T22:32:33.720Z,2.88
2022-07-25T22:35:00.531Z,2.30
2022-07-25T22:37:27.373Z,1.75
2022-07-25T22:40:01.417Z,2.38
2022-07-25T22:42:28.635Z,2.25
2022-07-25T22:44:55.631Z,1.45
2022-07-25T22:47:22.455Z,2.00
2022-07-25T22:49:49.266Z,2.13
2022-07-25T22:52:16.115Z,2.13
2022-07-25T22:54:43.468Z,2.05
2022-07-25T22:57:10.340Z,1.65
2022-07-25T22:59:37.225Z,2.05
2022-07-25T23:02:04.417Z,2.15
2022-07-25T23:04:31.352Z,2.63
2022-07-25T23:06:58.298Z,3.08
2022-07-25T23:09:25.111Z,2.47
2022-07-25T23:12:01.695Z,2.20
2022-07-25T23:14:28.496Z,1.80
2022-07-25T23:17:13.797Z,2.00
2022-07-25T23:19:40.626Z,2.55
2022-07-25T23:22:07.410Z,2.03
2022-07-25T23:24:37.619Z,1.95
2022-07-25T23:27:05.204Z,2.88
2022-07-25T23:29:32.142Z,1.60
2022-07-25T23:31:59.076Z,2.10
2022-07-25T23:34:26.012Z,1.30
2022-07-25T23:36:52.942Z,2.67
2022-07-25T23:39:19.746Z,1.40
2022-07-25T23:41:46.556Z,1.83
2022-07-25T23:44:13.569Z,1.98
2022-07-25T23:46:41.663Z,2.22
2022-07-25T23:49:11.684Z,1.83
2022-07-25T23:51:39.127Z,2.53
2022-07-25T23:54:06.201Z,1.73
2022-07-25T23:56:33.068Z,1.40
2022-07-25T23:58:59.959Z,2.25
